createdAt,value
2023-05-23T00:01:59.841Z,20.80
2023-05-23T00:04:33.699Z,21.00
2023-05-23T00:07:10.873Z,21.40
2023-05-23T00:09:46.630Z,21.50
2023-05-23T00:12:22.205Z,21.40
2023-05-23T00:14:56.828Z,21.30
2023-05-23T00:17:31.757Z,21.30
2023-05-23T00:20:06.289Z,21.30
2023-05-23T00:22:44.110Z,21.80
2023-05-23T00:25:19.323Z,22.10
2023-05-23T00:27:53.296Z,22.30
2023-05-23T00:30:27.636Z,22.30
2023-05-23T00:33:01.784Z,22.40
2023-05-23T00:35:37.151Z,22.50
2023-05-23T00:38:14.432Z,22.20
2023-05-23T00:40:50.643Z,22.40
2023-05-23T00:43:25.028Z,22.20
2023-05-23T00:45:58.257Z,21.80
2023-05-23T00:48:33.815Z,22.50
2023-05-23T00:51:08.385Z,22.40
2023-05-23T00:53:44.729Z,22.70
2023-05-23T00:56:21.280Z,22.30
2023-05-23T00:58:56.292Z,22.70
2023-05-23T01:01:32.042Z,22.90
2023-05-23T01:04:06.736Z,22.90
2023-05-23T01:06:41.651Z,22.90
2023-05-23T01:09:17.859Z,23.00
2023-05-23T01:12:00.013Z,22.90
2023-05-23T01:14:42.920Z,22.70
2023-05-23T01:17:26.404Z,22.60
2023-05-23T01:20:12.455Z,22.40
2023-05-23T01:23:26.801Z,22.50
2023-05-23T01:26:23.411Z,22.30
2023-05-23T01:29:11.499Z,22.40
2023-05-23T01:31:53.046Z,22.80
2023-05-23T01:34:27.942Z,23.20
2023-05-23T01:37:02.740Z,23.30
2023-05-23T01:39:36.920Z,23.40
2023-05-23T01:42:12.210Z,23.60
2023-05-23T01:44:50.113Z,23.20
2023-05-23T01:47:26.119Z,23.10
2023-05-23T01:50:05.597Z,22.90
2023-05-23T01:52:44.976Z,23.30
2023-05-23T01:55:24.123Z,23.00
2023-05-23T01:58:03.223Z,22.60
2023-05-23T02:00:45.737Z,22.20
2023-05-23T02:03:23.569Z,22.60
2023-05-23T02:05:59.451Z,23.20
2023-05-23T02:08:34.988Z,23.90
2023-05-23T02:11:14.477Z,24.40
2023-05-23T02:13:48.802Z,24.60
2023-05-23T02:16:30.642Z,24.30
2023-05-23T02:19:06.330Z,24.10
2023-05-23T02:21:43.715Z,24.90
2023-05-23T02:24:21.108Z,24.80
2023-05-23T02:26:59.937Z,24.10
2023-05-23T02:29:35.215Z,24.30
2023-05-23T02:32:13.420Z,24.60
2023-05-23T02:34:48.726Z,25.30
2023-05-23T02:37:23.584Z,26.50
2023-05-23T02:39:57.949Z,27.00
2023-05-23T02:42:31.214Z,27.00
2023-05-23T02:45:11.121Z,27.40
2023-05-23T02:47:52.206Z,27.50
2023-05-23T02:50:29.741Z,27.50
2023-05-23T02:53:04.151Z,27.30
2023-05-23T02:55:40.818Z,27.70
2023-05-23T02:58:18.354Z,27.20
2023-05-23T03:00:57.345Z,27.10
2023-05-23T03:03:44.865Z,26.20
2023-05-23T03:06:23.905Z,25.70
2023-05-23T03:08:59.451Z,25.90
2023-05-23T03:11:36.876Z,25.70
2023-05-23T03:14:11.288Z,25.70
2023-05-23T03:16:48.860Z,25.80
2023-05-23T03:19:26.534Z,26.00
2023-05-23T03:22:00.506Z,25.50
2023-05-23T03:24:35.571Z,26.00
2023-05-23T03:27:10.368Z,26.70
2023-05-23T03:29:46.852Z,26.70
2023-05-23T03:32:23.708Z,26.70
2023-05-23T03:35:03.305Z,26.70
2023-05-23T03:37:41.568Z,26.70
2023-05-23T03:40:16.843Z,26.80
2023-05-23T03:43:07.468Z,27.20
2023-05-23T03:45:48.826Z,27.20
2023-05-23T03:48:24.352Z,27.10
2023-05-23T03:51:01.165Z,27.30
2023-05-23T03:53:36.508Z,27.10
2023-05-23T03:56:15.053Z,27.30
2023-05-23T03:58:50.155Z,27.10
2023-05-23T04:01:24.708Z,27.40
2023-05-23T04:03:58.657Z,27.70
2023-05-23T04:06:37.558Z,27.50
2023-05-23T04:09:10.594Z,27.40
2023-05-23T04:11:49.372Z,27.40
2023-05-23T04:14:26.667Z,26.80
2023-05-23T04:17:02.156Z,26.90
2023-05-23T04:19:36.961Z,27.30
2023-05-23T04:22:15.090Z,27.60
2023-05-23T04:24:51.512Z,27.80
2023-05-23T04:27:27.239Z,27.80
2023-05-23T04:30:01.832Z,28.10
2023-05-23T04:32:38.648Z,28.00
2023-05-23T04:35:14.700Z,27.40
2023-05-23T04:37:51.796Z,27.40
2023-05-23T04:40:33.479Z,26.80
2023-05-23T04:43:28.676Z,26.50
2023-05-23T04:46:21.302Z,26.80
2023-05-23T04:49:06.115Z,26.60
2023-05-23T04:51:42.359Z,26.70
2023-05-23T04:54:38.544Z,26.40
2023-05-23T04:57:17.009Z,26.50
2023-05-23T04:59:59.049Z,26.60
2023-05-23T05:02:36.897Z,26.90
2023-05-23T05:05:20.577Z,26.80
2023-05-23T05:07:59.722Z,26.60
2023-05-23T05:10:43.910Z,26.70
2023-05-23T05:13:19.734Z,26.80
2023-05-23T05:16:11.464Z,26.90
2023-05-23T05:18:48.413Z,27.00
2023-05-23T05:21:27.873Z,27.10
2023-05-23T05:24:03.303Z,26.90
2023-05-23T05:26:41.836Z,26.70
2023-05-23T05:29:18.799Z,26.60
2023-05-23T05:31:53.972Z,26.40
2023-05-23T05:34:28.948Z,26.10
2023-05-23T05:37:05.120Z,26.50
2023-05-23T05:39:40.035Z,26.70
2023-05-23T05:42:21.916Z,26.80
2023-05-23T05:44:58.525Z,27.20
2023-05-23T05:47:34.860Z,27.30
2023-05-23T05:50:12.301Z,26.80
2023-05-23T05:52:53.977Z,26.80
2023-05-23T05:55:30.360Z,27.10
2023-05-23T05:58:10.560Z,26.60
2023-05-23T06:01:02.568Z,26.20
2023-05-23T06:03:37.482Z,26.60
2023-05-23T06:06:14.874Z,26.30
2023-05-23T06:08:49.807Z,26.60
2023-05-23T06:11:25.783Z,26.80
2023-05-23T06:14:05.856Z,27.10
2023-05-23T06:16:43.027Z,26.80
2023-05-23T06:19:17.530Z,26.30
2023-05-23T06:21:51.634Z,26.40
2023-05-23T06:24:27.762Z,26.90
2023-05-23T06:27:01.724Z,27.50
2023-05-23T06:29:37.839Z,27.80
2023-05-23T06:32:12.619Z,28.10
2023-05-23T06:34:47.344Z,27.90
2023-05-23T06:37:21.703Z,28.00
2023-05-23T06:39:55.991Z,27.80
2023-05-23T06:42:30.452Z,27.60
2023-05-23T06:45:20.702Z,27.40
2023-05-23T06:47:55.350Z,27.10
2023-05-23T06:50:33.217Z,26.70
2023-05-23T06:53:08.481Z,26.90
2023-05-23T06:55:42.121Z,26.90
2023-05-23T06:58:18.702Z,27.00
2023-05-23T07:00:56.190Z,27.20
2023-05-23T07:03:38.201Z,27.10
2023-05-23T07:06:14.580Z,27.20
2023-05-23T07:08:48.209Z,27.40
2023-05-23T07:11:24.518Z,27.50
2023-05-23T07:14:02.800Z,27.70
2023-05-23T07:16:45.879Z,27.90
2023-05-23T07:19:20.161Z,27.60
2023-05-23T07:21:59.671Z,27.80
2023-05-23T07:24:33.107Z,28.10
2023-05-23T07:27:07.722Z,28.00
2023-05-23T07:29:44.995Z,27.80
2023-05-23T07:32:22.545Z,27.60
2023-05-23T07:34:57.120Z,27.30
2023-05-23T07:37:31.046Z,27.40
2023-05-23T07:40:07.336Z,27.50
2023-05-23T07:42:41.360Z,27.60
2023-05-23T07:45:15.164Z,27.50
2023-05-23T07:47:52.609Z,27.30
2023-05-23T07:50:33.105Z,26.70
2023-05-23T07:53:09.807Z,26.60
2023-05-23T07:55:44.465Z,26.60
2023-05-23T07:58:21.146Z,26.70
2023-05-23T08:00:55.033Z,26.60
2023-05-23T08:03:51.237Z,26.30
2023-05-23T08:06:36.271Z,26.00
2023-05-23T08:09:13.127Z,25.70
2023-05-23T08:11:51.350Z,25.60
2023-05-23T08:14:34.878Z,25.90
2023-05-23T08:17:24.386Z,26.00
2023-05-23T08:20:02.178Z,25.70
2023-05-23T08:22:36.494Z,25.50
2023-05-23T08:25:11.480Z,25.50
2023-05-23T08:27:47.539Z,25.50
2023-05-23T08:30:44.129Z,25.60
2023-05-23T08:33:19.473Z,25.50
2023-05-23T08:35:58.852Z,25.70
2023-05-23T08:38:33.765Z,25.90
2023-05-23T08:41:25.934Z,26.00
2023-05-23T08:44:08.149Z,25.30
2023-05-23T08:46:51.070Z,25.30
2023-05-23T08:49:45.550Z,25.30
2023-05-23T08:52:26.210Z,25.50
2023-05-23T08:55:04.011Z,25.70
2023-05-23T08:57:40.826Z,25.80
2023-05-23T09:00:31.495Z,25.90
2023-05-23T09:03:06.297Z,26.10
2023-05-23T09:05:56.687Z,26.00
2023-05-23T09:08:33.524Z,25.80
2023-05-23T09:11:08.997Z,25.70
2023-05-23T09:13:46.282Z,25.80
2023-05-23T09:16:23.951Z,25.80
2023-05-23T09:19:03.181Z,25.80
2023-05-23T09:21:38.231Z,25.80
2023-05-23T09:24:22.120Z,26.10
2023-05-23T09:26:55.357Z,26.20
2023-05-23T09:29:30.796Z,25.80
2023-05-23T09:32:15.685Z,25.60
2023-05-23T09:35:02.346Z,25.70
2023-05-23T09:37:36.791Z,25.60
2023-05-23T09:40:16.641Z,25.50
2023-05-23T09:43:05.045Z,25.50
2023-05-23T09:45:40.285Z,25.50
2023-05-23T09:48:18.956Z,25.30
2023-05-23T09:50:56.336Z,25.10
2023-05-23T09:53:30.025Z,25.30
2023-05-23T09:56:09.144Z,25.40
2023-05-23T09:58:45.885Z,25.40
2023-05-23T10:01:21.071Z,25.20
2023-05-23T10:04:00.292Z,24.90
2023-05-23T10:06:47.878Z,25.10
2023-05-23T10:09:24.858Z,25.20
2023-05-23T10:12:39.982Z,25.30
2023-05-23T10:15:18.049Z,25.20
2023-05-23T10:18:10.079Z,25.10
2023-05-23T10:20:46.661Z,24.90
2023-05-23T10:23:21.119Z,24.90
2023-05-23T10:25:56.143Z,24.90
2023-05-23T10:28:31.129Z,24.80
2023-05-23T10:31:07.002Z,24.80
2023-05-23T10:33:49.227Z,24.60
2023-05-23T10:36:30.921Z,24.40
2023-05-23T10:39:10.365Z,24.50
2023-05-23T10:41:53.068Z,24.50
2023-05-23T10:44:33.854Z,24.10
2023-05-23T10:47:09.454Z,24.00
2023-05-23T10:49:49.979Z,24.10
2023-05-23T10:52:22.987Z,24.30
2023-05-23T10:54:59.251Z,24.20
2023-05-23T10:57:34.885Z,24.20
2023-05-23T11:00:18.049Z,24.20
2023-05-23T11:03:04.364Z,24.20
2023-05-23T11:05:40.169Z,24.20
2023-05-23T11:08:16.402Z,24.00
2023-05-23T11:11:04.969Z,24.00
2023-05-23T11:14:01.313Z,23.90
2023-05-23T11:16:44.180Z,23.90
2023-05-23T11:19:31.527Z,24.00
2023-05-23T11:22:07.848Z,23.90
2023-05-23T11:24:57.897Z,23.80
2023-05-23T11:27:38.128Z,23.80
2023-05-23T11:30:15.901Z,23.80
2023-05-23T11:32:56.061Z,23.80
2023-05-23T11:35:32.828Z,23.90
2023-05-23T11:38:09.176Z,23.90
2023-05-23T11:40:45.684Z,23.80
2023-05-23T11:43:20.420Z,23.90
2023-05-23T11:45:55.336Z,23.90
2023-05-23T11:48:31.889Z,23.60
2023-05-23T11:51:08.373Z,23.40
2023-05-23T11:53:44.147Z,23.50
2023-05-23T11:56:19.952Z,23.50
2023-05-23T11:58:53.574Z,23.50
2023-05-23T12:01:33.927Z,23.70
2023-05-23T12:04:17.207Z,23.60
2023-05-23T12:06:53.107Z,23.60
2023-05-23T12:09:27.134Z,23.50
2023-05-23T12:12:00.650Z,23.50
2023-05-23T12:14:35.987Z,23.50
2023-05-23T12:17:10.060Z,23.60
2023-05-23T12:19:51.090Z,23.70
2023-05-23T12:22:28.696Z,23.60
2023-05-23T12:25:02.564Z,23.50
2023-05-23T12:27:40.187Z,23.50
2023-05-23T12:30:15.898Z,23.50
2023-05-23T12:32:51.476Z,23.50
2023-05-23T12:35:29.495Z,23.50
2023-05-23T12:38:02.748Z,23.50
2023-05-23T12:40:41.154Z,23.50
2023-05-23T12:43:18.542Z,23.50
2023-05-23T12:45:52.684Z,23.50
2023-05-23T12:48:27.324Z,23.50
2023-05-23T12:51:07.261Z,23.40
2023-05-23T12:53:40.842Z,23.30
2023-05-23T12:56:14.648Z,23.30
2023-05-23T12:58:51.691Z,23.20
2023-05-23T13:01:27.084Z,23.20
2023-05-23T13:04:00.477Z,23.30
2023-05-23T13:06:37.247Z,23.30
2023-05-23T13:09:13.340Z,23.30
2023-05-23T13:11:47.029Z,23.30
2023-05-23T13:14:21.202Z,23.20
2023-05-23T13:16:55.137Z,23.20
2023-05-23T13:19:29.695Z,23.20
2023-05-23T13:22:06.805Z,23.10
2023-05-23T13:24:43.003Z,23.10
2023-05-23T13:27:17.579Z,23.00
2023-05-23T13:29:55.092Z,23.00
2023-05-23T13:32:28.686Z,23.00
2023-05-23T13:35:02.605Z,23.10
2023-05-23T13:37:40.098Z,23.00
2023-05-23T13:40:16.153Z,22.80
2023-05-23T13:42:50.365Z,22.80
2023-05-23T13:45:32.820Z,22.90
2023-05-23T13:48:07.426Z,23.00
2023-05-23T13:50:40.759Z,23.00
2023-05-23T13:53:18.182Z,23.00
2023-05-23T13:55:51.613Z,23.10
2023-05-23T13:58:25.218Z,23.00
2023-05-23T14:01:01.323Z,23.00
2023-05-23T14:03:34.949Z,23.00
2023-05-23T14:06:09.065Z,23.00
2023-05-23T14:08:51.421Z,23.00
2023-05-23T14:11:24.557Z,23.00
2023-05-23T14:14:02.741Z,22.90
2023-05-23T14:16:39.625Z,22.90
2023-05-23T14:19:15.923Z,22.90
2023-05-23T14:21:49.776Z,23.00
2023-05-23T14:24:28.805Z,23.00
2023-05-23T14:27:04.746Z,23.00
2023-05-23T14:29:38.856Z,23.00
2023-05-23T14:32:13.290Z,22.90
2023-05-23T14:34:47.388Z,22.90
2023-05-23T14:37:22.980Z,22.90
2023-05-23T14:39:59.652Z,22.80
2023-05-23T14:42:36.055Z,22.60
2023-05-23T14:45:11.982Z,22.60
2023-05-23T14:47:47.003Z,22.60
2023-05-23T14:50:23.022Z,22.60
2023-05-23T14:52:58.095Z,22.60
2023-05-23T14:55:35.836Z,22.60
2023-05-23T14:58:12.471Z,22.60
2023-05-23T15:00:48.203Z,22.50
2023-05-23T15:03:22.366Z,22.40
2023-05-23T15:05:58.024Z,22.40
2023-05-23T15:08:31.632Z,22.30
2023-05-23T15:11:11.470Z,22.00
2023-05-23T15:13:47.810Z,22.10
2023-05-23T15:16:25.040Z,22.20
2023-05-23T15:19:00.478Z,22.30
2023-05-23T15:21:34.869Z,22.30
2023-05-23T15:24:10.481Z,22.40
2023-05-23T15:26:46.119Z,22.50
2023-05-23T15:29:20.866Z,22.40
2023-05-23T15:32:04.535Z,22.40
2023-05-23T15:34:39.206Z,22.30
2023-05-23T15:37:12.905Z,22.20
2023-05-23T15:39:48.152Z,22.10
2023-05-23T15:42:25.895Z,22.00
2023-05-23T15:45:02.324Z,21.80
2023-05-23T15:47:37.577Z,22.00
2023-05-23T15:50:15.929Z,22.10
2023-05-23T15:52:54.828Z,22.10
2023-05-23T15:55:29.316Z,22.20
2023-05-23T15:58:09.550Z,22.20
2023-05-23T16:00:45.717Z,22.20
2023-05-23T16:03:20.637Z,22.20
2023-05-23T16:05:55.018Z,22.20
2023-05-23T16:08:28.361Z,22.20
2023-05-23T16:11:01.703Z,22.20
2023-05-23T16:13:41.471Z,22.20
2023-05-23T16:16:15.758Z,22.20
2023-05-23T16:18:53.444Z,22.20
2023-05-23T16:21:26.631Z,22.00
2023-05-23T16:24:00.329Z,22.10
2023-05-23T16:26:33.909Z,21.90
2023-05-23T16:29:13.455Z,22.00
2023-05-23T16:31:48.333Z,21.90
2023-05-23T16:34:22.414Z,21.90
2023-05-23T16:36:56.091Z,22.00
2023-05-23T16:39:29.760Z,22.00
2023-05-23T16:42:04.777Z,22.00
2023-05-23T16:44:42.369Z,22.00
2023-05-23T16:47:16.474Z,22.00
2023-05-23T16:49:49.719Z,22.00
2023-05-23T16:52:23.866Z,21.70
2023-05-23T16:54:57.549Z,21.70
2023-05-23T16:57:34.794Z,21.90
2023-05-23T17:00:13.783Z,21.90
2023-05-23T17:02:51.723Z,21.90
2023-05-23T17:05:26.596Z,21.90
2023-05-23T17:08:01.397Z,21.80
2023-05-23T17:10:35.829Z,21.80
2023-05-23T17:13:09.404Z,21.80
2023-05-23T17:15:46.308Z,21.90
2023-05-23T17:18:20.582Z,21.80
2023-05-23T17:20:57.343Z,21.70
2023-05-23T17:23:31.660Z,21.80
2023-05-23T17:26:06.003Z,21.90
2023-05-23T17:28:39.911Z,21.90
2023-05-23T17:31:16.834Z,21.90
2023-05-23T17:33:50.386Z,21.80
2023-05-23T17:36:26.611Z,21.80
2023-05-23T17:39:02.305Z,21.80
2023-05-23T17:41:35.855Z,21.90
2023-05-23T17:44:11.284Z,21.80
2023-05-23T17:46:47.649Z,21.80
2023-05-23T17:49:23.993Z,21.80
2023-05-23T17:51:58.908Z,21.80
2023-05-23T17:54:33.229Z,21.80
2023-05-23T17:57:07.497Z,21.80
2023-05-23T17:59:43.533Z,21.80
2023-05-23T18:02:20.099Z,21.80
2023-05-23T18:04:55.722Z,21.70
2023-05-23T18:07:32.472Z,21.70
2023-05-23T18:10:07.694Z,21.70
2023-05-23T18:12:42.711Z,21.70
2023-05-23T18:15:18.453Z,21.70
2023-05-23T18:17:57.553Z,21.60
2023-05-23T18:20:32.861Z,21.70
2023-05-23T18:23:10.406Z,21.70
2023-05-23T18:25:48.327Z,21.60
2023-05-23T18:28:24.381Z,21.60
2023-05-23T18:30:59.554Z,21.50
2023-05-23T18:33:40.049Z,21.50
2023-05-23T18:36:15.861Z,21.60
2023-05-23T18:38:53.548Z,21.50
2023-05-23T18:41:30.680Z,21.50
2023-05-23T18:44:07.134Z,21.50
2023-05-23T18:46:42.745Z,21.50
2023-05-23T18:49:19.994Z,21.50
2023-05-23T18:51:55.608Z,21.60
2023-05-23T18:54:30.124Z,21.50
2023-05-23T18:57:07.272Z,21.50
2023-05-23T18:59:40.840Z,21.50
2023-05-23T19:02:15.448Z,21.50
2023-05-23T19:04:55.500Z,21.50
2023-05-23T19:07:29.047Z,21.50
2023-05-23T19:10:04.073Z,21.50
2023-05-23T19:12:39.927Z,21.50
2023-05-23T19:15:16.541Z,21.50
2023-05-23T19:17:50.978Z,21.50
2023-05-23T19:20:26.610Z,21.50
2023-05-23T19:23:01.051Z,21.50
2023-05-23T19:25:36.958Z,21.50
2023-05-23T19:28:11.657Z,21.50
2023-05-23T19:30:46.523Z,21.50
2023-05-23T19:33:24.064Z,21.40
2023-05-23T19:35:59.908Z,21.40
2023-05-23T19:38:34.536Z,21.40
2023-05-23T19:41:08.926Z,21.40
2023-05-23T19:43:42.883Z,21.40
2023-05-23T19:46:17.448Z,21.40
2023-05-23T19:48:51.730Z,21.20
2023-05-23T19:51:28.125Z,21.20
2023-05-23T19:54:03.411Z,21.30
2023-05-23T19:56:38.082Z,21.30
2023-05-23T19:59:13.163Z,21.30
2023-05-23T20:01:46.945Z,21.30
2023-05-23T20:04:26.658Z,21.30
2023-05-23T20:07:02.934Z,21.20
2023-05-23T20:09:36.504Z,21.10
2023-05-23T20:12:12.814Z,21.10
2023-05-23T20:14:47.493Z,21.00
2023-05-23T20:17:22.142Z,21.10
2023-05-23T20:19:56.271Z,21.10
2023-05-23T20:22:32.273Z,21.00
2023-05-23T20:25:06.183Z,21.00
2023-05-23T20:27:39.053Z,21.00
2023-05-23T20:30:14.301Z,21.00
2023-05-23T20:32:48.291Z,21.00
2023-05-23T20:35:23.198Z,20.90
2023-05-23T20:37:59.673Z,21.10
2023-05-23T20:40:35.873Z,21.10
2023-05-23T20:43:11.013Z,21.10
2023-05-23T20:45:44.883Z,21.20
2023-05-23T20:48:19.389Z,21.10
2023-05-23T20:50:53.505Z,21.10
2023-05-23T20:53:29.871Z,21.20
2023-05-23T20:56:05.342Z,21.20
2023-05-23T20:58:39.888Z,21.20
2023-05-23T21:01:14.667Z,21.30
2023-05-23T21:03:48.339Z,21.20
2023-05-23T21:06:23.265Z,21.20
2023-05-23T21:08:59.191Z,21.20
2023-05-23T21:11:33.057Z,21.20
2023-05-23T21:14:06.664Z,21.20
2023-05-23T21:16:41.211Z,21.10
2023-05-23T21:19:17.592Z,20.90
2023-05-23T21:21:52.162Z,20.80
2023-05-23T21:24:29.756Z,20.70
2023-05-23T21:27:04.092Z,20.80
2023-05-23T21:29:38.098Z,20.90
2023-05-23T21:32:11.521Z,20.90
2023-05-23T21:34:45.131Z,20.90
2023-05-23T21:37:20.206Z,20.90
2023-05-23T21:39:55.613Z,20.90
2023-05-23T21:42:29.647Z,20.90
2023-05-23T21:45:04.095Z,21.00
2023-05-23T21:47:39.843Z,20.90
2023-05-23T21:50:14.239Z,20.80
2023-05-23T21:52:50.337Z,20.80
2023-05-23T21:55:27.074Z,20.80
2023-05-23T21:58:01.369Z,20.70
2023-05-23T22:00:36.290Z,20.70
2023-05-23T22:03:12.420Z,20.70
2023-05-23T22:05:49.029Z,20.70
2023-05-23T22:08:26.028Z,20.70
2023-05-23T22:11:02.307Z,20.70
2023-05-23T22:13:36.775Z,20.70
2023-05-23T22:16:10.964Z,20.70
2023-05-23T22:18:51.916Z,20.70
2023-05-23T22:21:25.291Z,20.80
2023-05-23T22:23:59.888Z,20.80
2023-05-23T22:26:36.746Z,20.80
2023-05-23T22:29:11.561Z,20.90
2023-05-23T22:31:47.986Z,20.90
2023-05-23T22:34:21.734Z,21.00
2023-05-23T22:37:00.417Z,21.00
2023-05-23T22:39:34.613Z,21.10
2023-05-23T22:42:12.940Z,21.10
2023-05-23T22:44:47.965Z,21.20
2023-05-23T22:47:22.124Z,21.20
2023-05-23T22:49:58.260Z,21.30
2023-05-23T22:52:32.680Z,21.30
2023-05-23T22:55:08.325Z,21.40
2023-05-23T22:57:49.772Z,21.50
2023-05-23T23:00:27.428Z,21.60
2023-05-23T23:03:04.072Z,21.60
2023-05-23T23:05:40.324Z,21.70
2023-05-23T23:08:27.773Z,21.90
2023-05-23T23:11:08.043Z,22.00
2023-05-23T23:13:58.983Z,22.10
2023-05-23T23:16:38.200Z,22.40
2023-05-23T23:19:13.829Z,23.10
2023-05-23T23:21:50.268Z,24.20
2023-05-23T23:24:25.105Z,24.50
2023-05-23T23:26:59.341Z,24.10
2023-05-23T23:29:36.552Z,24.30
2023-05-23T23:32:12.200Z,24.90
2023-05-23T23:34:47.581Z,25.10
2023-05-23T23:37:22.717Z,25.40
2023-05-23T23:39:56.572Z,26.20
2023-05-23T23:42:31.290Z,27.20
2023-05-23T23:45:15.064Z,27.50
2023-05-23T23:47:51.295Z,27.80
2023-05-23T23:50:28.078Z,28.10
2023-05-23T23:53:02.912Z,28.60
2023-05-23T23:55:39.014Z,28.60
2023-05-23T23:58:15.228Z,28.50
